Time;durP1;ratioP1;P1;durP2;ratioP2;P2;SDS_P1;SDS_P2;PMS_P1;PMS_P2;Temp;Humidity;BMP_temperature;BMP_pressure;BME280_temperature;BME280_humidity;BME280_pressure;Samples;Min_cycle;Max_cycle;Signal;HPM_P1;HPM_P2
2022/03/03 00:01:09;;;;;;;;;;;4.90;90.20;;;;;;5078700;28;19909;-73
2022/03/03 00:03:34;;;;;;;;;;;4.80;90.20;;;;;;5078700;28;19952;-68
2022/03/03 00:06:00;;;;;;;;;;;4.70;90.40;;;;;;5078389;28;19914;-69
2022/03/03 00:08:25;;;;;;;;;;;4.80;90.40;;;;;;5077884;28;20246;-68
2022/03/03 00:10:51;;;;;;;;;;;4.80;90.20;;;;;;5077000;28;20179;-68
2022/03/03 00:13:16;;;;;;;;;;;4.80;90.20;;;;;;5077109;28;19954;-73
2022/03/03 00:15:42;;;;;;;;;;;4.70;90.20;;;;;;5077897;28;19935;-71
2022/03/03 00:18:07;;;;;;;;;;;4.70;90.10;;;;;;5077525;28;19909;-71
2022/03/03 00:20:33;;;;;;;;;;;4.70;90.20;;;;;;5077891;28;19934;-69
2022/03/03 00:22:59;;;;;;;;;;;4.70;90.40;;;;;;5078585;28;20066;-68
2022/03/03 00:25:24;;;;;;;;;;;4.70;90.30;;;;;;5077832;28;19917;-68
2022/03/03 00:27:50;;;;;;;;;;;4.60;90.20;;;;;;5077929;28;19935;-68
2022/03/03 00:30:15;;;;;;;;;;;4.70;90.00;;;;;;5077838;28;19948;-69
2022/03/03 00:32:41;;;;;;;;;;;4.50;90.20;;;;;;5078537;28;19938;-69
2022/03/03 00:35:10;;;;;;;;;;;4.60;90.30;;;;;;5061350;28;19956;-69
2022/03/03 00:37:36;;;;;;;;;;;4.50;90.60;;;;;;5078363;28;20330;-67
2022/03/03 00:40:03;;;;;;;;;;;4.60;90.70;;;;;;5077700;28;19954;-70
2022/03/03 00:42:28;;;;;;;;;;;4.50;91.00;;;;;;5076668;28;19908;-69
2022/03/03 00:44:54;;;;;;;;;;;4.50;91.00;;;;;;5076264;28;20464;-69
2022/03/03 00:47:19;;;;;;;;;;;4.50;91.10;;;;;;5076525;28;19920;-71
2022/03/03 00:49:45;;;;;;;;;;;4.30;91.40;;;;;;5058098;28;20358;-67
2022/03/03 00:52:10;;;;;;;;;;;4.30;91.60;;;;;;5076947;28;20362;-68
2022/03/03 00:54:36;;;;;;;;;;;4.30;92.00;;;;;;5077056;28;19913;-68
2022/03/03 00:57:01;;;;;;;;;;;4.10;92.30;;;;;;5079192;28;19917;-67
2022/03/03 00:59:27;;;;;;;;;;;4.10;92.40;;;;;;5078123;28;19908;-67
2022/03/03 01:01:52;;;;;;;;;;;4.20;92.40;;;;;;5077799;28;19961;-68
2022/03/03 01:04:19;;;;;;;;;;;4.20;92.50;;;;;;5076948;28;19908;-72
2022/03/03 01:06:45;;;;;;;;;;;4.20;92.60;;;;;;5076021;28;19912;-69
2022/03/03 01:09:10;;;;;;;;;;;4.30;92.50;;;;;;5074629;28;20362;-67
2022/03/03 01:11:36;;;;;;;;;;;4.40;92.90;;;;;;5073765;28;20354;-67
2022/03/03 01:14:01;;;;;;;;;;;4.20;92.80;;;;;;5075470;28;20321;-67
2022/03/03 01:16:27;;;;;;;;;;;4.10;93.40;;;;;;5074433;28;19908;-67
2022/03/03 01:18:52;;;;;;;;;;;4.00;93.20;;;;;;5076189;28;19909;-70
2022/03/03 01:21:18;;;;;;;;;;;4.00;93.50;;;;;;5076005;28;20342;-67
2022/03/03 01:23:43;;;;;;;;;;;3.90;93.70;;;;;;5075722;28;20374;-69
2022/03/03 01:26:09;;;;;;;;;;;4.00;93.70;;;;;;5076104;28;19959;-68
2022/03/03 01:28:34;;;;;;;;;;;3.90;93.80;;;;;;5076120;28;19913;-67
2022/03/03 01:31:00;;;;;;;;;;;3.90;94.00;;;;;;5076704;28;19909;-69
2022/03/03 01:33:26;;;;;;;;;;;3.90;94.10;;;;;;5074810;28;20254;-68
2022/03/03 01:35:51;;;;;;;;;;;3.90;94.20;;;;;;5074295;28;20289;-68
2022/03/03 01:38:16;;;;;;;;;;;3.90;94.30;;;;;;5075597;28;20025;-68
2022/03/03 01:40:42;;;;;;;;;;;3.80;94.40;;;;;;5073633;28;19970;-67
2022/03/03 01:43:08;;;;;;;;;;;3.90;94.30;;;;;;5057853;28;19931;-68
2022/03/03 01:45:33;;;;;;;;;;;3.80;94.30;;;;;;5075809;28;19912;-70
2022/03/03 01:47:59;;;;;;;;;;;3.90;94.30;;;;;;5074741;28;20272;-70
2022/03/03 01:50:25;;;;;;;;;;;3.80;94.40;;;;;;5057773;28;19908;-68
2022/03/03 01:52:51;;;;;;;;;;;3.90;94.30;;;;;;5056364;28;19962;-68
2022/03/03 01:55:17;;;;;;;;;;;3.90;94.10;;;;;;5074978;28;19917;-68
2022/03/03 01:57:43;;;;;;;;;;;3.90;94.00;;;;;;5074077;28;19916;-68
2022/03/03 02:00:08;;;;;;;;;;;3.90;94.20;;;;;;5073772;28;19908;-68
2022/03/03 02:02:34;;;;;;;;;;;3.60;94.50;;;;;;5075124;28;19908;-67
2022/03/03 02:04:59;;;;;;;;;;;3.70;94.40;;;;;;5074326;28;19908;-69
2022/03/03 02:07:32;;;;;;;;;;;3.50;93.90;;;;;;5082882;28;19916;-68
2022/03/03 02:10:03;;;;;;;;;;;3.60;94.00;;;;;;5094004;28;19922;-69
2022/03/03 02:12:29;;;;;;;;;;;3.60;94.20;;;;;;5075113;28;20392;-69
2022/03/03 02:14:54;;;;;;;;;;;3.60;94.50;;;;;;5093754;28;19947;-69
2022/03/03 02:17:20;;;;;;;;;;;3.60;94.40;;;;;;5094071;28;19908;-68
2022/03/03 02:19:46;;;;;;;;;;;3.60;94.60;;;;;;5075374;28;20002;-68
2022/03/03 02:22:11;;;;;;;;;;;3.60;94.60;;;;;;5076280;28;19908;-68
2022/03/03 02:24:38;;;;;;;;;;;3.60;94.60;;;;;;5094123;28;19924;-68
2022/03/03 02:27:04;;;;;;;;;;;3.70;94.80;;;;;;5093651;28;19912;-68
2022/03/03 02:29:30;;;;;;;;;;;3.50;94.50;;;;;;5076096;28;19912;-68
2022/03/03 02:31:55;;;;;;;;;;;3.40;94.70;;;;;;5093930;28;20014;-68
2022/03/03 02:34:21;;;;;;;;;;;3.50;94.80;;;;;;5094994;28;19914;-69
2022/03/03 02:36:47;;;;;;;;;;;3.40;94.90;;;;;;5075878;28;19915;-68
2022/03/03 02:39:12;;;;;;;;;;;3.40;95.10;;;;;;5076487;28;19912;-68
2022/03/03 02:41:37;;;;;;;;;;;3.40;95.10;;;;;;5076116;28;20315;-69
2022/03/03 02:44:03;;;;;;;;;;;3.30;95.00;;;;;;5075443;28;20086;-68
2022/03/03 02:46:29;;;;;;;;;;;3.20;95.20;;;;;;5075794;28;19912;-67
2022/03/03 02:48:55;;;;;;;;;;;3.10;95.40;;;;;;5093329;28;19912;-68
2022/03/03 02:51:21;;;;;;;;;;;2.80;96.10;;;;;;5075964;28;19915;-68
2022/03/03 02:53:46;;;;;;;;;;;3.00;96.10;;;;;;5076126;28;19918;-70
2022/03/03 02:56:12;;;;;;;;;;;3.10;95.90;;;;;;5076022;28;19923;-71
2022/03/03 02:58:37;;;;;;;;;;;3.10;95.90;;;;;;5094615;28;19908;-69
2022/03/03 03:01:04;;;;;;;;;;;3.10;95.90;;;;;;5094418;28;19917;-69
2022/03/03 03:03:30;;;;;;;;;;;3.00;96.00;;;;;;5076595;28;19953;-71
2022/03/03 03:05:56;;;;;;;;;;;3.00;96.20;;;;;;5094421;28;20010;-73
2022/03/03 03:08:21;;;;;;;;;;;3.00;96.10;;;;;;5094689;28;20366;-68
2022/03/03 03:10:47;;;;;;;;;;;3.00;96.20;;;;;;5075673;28;20349;-70
2022/03/03 03:13:14;;;;;;;;;;;3.00;96.00;;;;;;5093523;28;19958;-69
2022/03/03 03:15:40;;;;;;;;;;;3.20;96.00;;;;;;5075473;28;19908;-68
2022/03/03 03:18:12;;;;;;;;;;;3.10;96.00;;;;;;5093824;28;19912;-67
2022/03/03 03:20:38;;;;;;;;;;;3.00;96.20;;;;;;5094737;28;20345;-68
2022/03/03 03:23:04;;;;;;;;;;;3.00;96.40;;;;;;5076245;28;20034;-68
2022/03/03 03:25:29;;;;;;;;;;;3.00;96.40;;;;;;5094392;28;19920;-68
2022/03/03 03:27:55;;;;;;;;;;;3.00;96.50;;;;;;5075570;28;19912;-68
2022/03/03 03:30:20;;;;;;;;;;;3.00;96.40;;;;;;5076742;28;19931;-68
2022/03/03 03:32:46;;;;;;;;;;;2.90;96.80;;;;;;5097648;28;20050;-68
2022/03/03 03:35:11;;;;;;;;;;;3.00;96.80;;;;;;5097239;28;19919;-70
2022/03/03 03:37:37;;;;;;;;;;;2.90;96.80;;;;;;5097572;28;19999;-72
2022/03/03 03:40:03;;;;;;;;;;;2.90;97.10;;;;;;5078554;28;19930;-69
2022/03/03 03:42:29;;;;;;;;;;;2.90;97.10;;;;;;5097505;28;19909;-68
2022/03/03 03:44:54;;;;;;;;;;;2.90;97.10;;;;;;5096839;28;20394;-68
2022/03/03 03:47:20;;;;;;;;;;;2.90;97.00;;;;;;5079722;28;20011;-68
2022/03/03 03:49:45;;;;;;;;;;;2.70;97.20;;;;;;5098734;28;19908;-69
2022/03/03 03:52:11;;;;;;;;;;;2.80;97.10;;;;;;5081064;28;20361;-68
2022/03/03 03:54:36;;;;;;;;;;;2.90;96.80;;;;;;5080719;28;19912;-68
2022/03/03 03:57:02;;;;;;;;;;;2.80;96.60;;;;;;5099689;28;20304;-68
2022/03/03 03:59:28;;;;;;;;;;;2.80;96.40;;;;;;5099320;28;19909;-69
2022/03/03 04:01:54;;;;;;;;;;;2.70;96.40;;;;;;5080451;28;19922;-72
2022/03/03 04:04:19;;;;;;;;;;;2.70;96.60;;;;;;5099017;28;19931;-68
2022/03/03 04:06:47;;;;;;;;;;;2.60;96.50;;;;;;5098244;28;19919;-70
2022/03/03 04:09:13;;;;;;;;;;;2.60;96.80;;;;;;5080019;28;19926;-70
2022/03/03 04:11:38;;;;;;;;;;;2.60;96.60;;;;;;5099281;28;19909;-69
2022/03/03 04:14:04;;;;;;;;;;;2.70;96.50;;;;;;5099974;28;19979;-70
2022/03/03 04:16:30;;;;;;;;;;;2.70;96.40;;;;;;5080344;28;19963;-70
2022/03/03 04:18:56;;;;;;;;;;;2.60;96.40;;;;;;5078341;28;19954;-69
2022/03/03 04:21:21;;;;;;;;;;;2.60;96.60;;;;;;5079326;28;20349;-70
2022/03/03 04:23:47;;;;;;;;;;;2.60;96.70;;;;;;5096636;28;19928;-71
2022/03/03 04:26:13;;;;;;;;;;;2.40;97.00;;;;;;5097150;28;19916;-68
2022/03/03 04:28:39;;;;;;;;;;;2.40;97.20;;;;;;5097734;28;20365;-69
2022/03/03 04:31:05;;;;;;;;;;;2.10;97.80;;;;;;5097930;28;19919;-67
2022/03/03 04:33:31;;;;;;;;;;;2.20;97.90;;;;;;5080445;28;19909;-68
2022/03/03 04:35:56;;;;;;;;;;;2.20;98.00;;;;;;5079084;28;19915;-67
2022/03/03 04:38:23;;;;;;;;;;;2.30;97.90;;;;;;5079437;28;19912;-71
2022/03/03 04:40:48;;;;;;;;;;;2.30;97.90;;;;;;5096111;28;19908;-69
2022/03/03 04:43:14;;;;;;;;;;;2.40;97.80;;;;;;5095431;28;20223;-69
2022/03/03 04:45:39;;;;;;;;;;;2.40;97.70;;;;;;5096109;28;19912;-69
2022/03/03 04:48:05;;;;;;;;;;;2.40;97.70;;;;;;5077099;28;19916;-71
2022/03/03 04:50:30;;;;;;;;;;;2.40;97.70;;;;;;5096007;28;19915;-70
2022/03/03 04:52:56;;;;;;;;;;;2.40;97.80;;;;;;5095777;28;20299;-67
2022/03/03 04:55:22;;;;;;;;;;;2.40;98.00;;;;;;5077861;28;20441;-70
2022/03/03 04:57:48;;;;;;;;;;;2.40;98.20;;;;;;5095693;28;19908;-68
2022/03/03 05:00:13;;;;;;;;;;;2.40;98.30;;;;;;5077068;28;19909;-67
2022/03/03 05:02:39;;;;;;;;;;;2.30;98.30;;;;;;5096144;28;19912;-68
2022/03/03 05:05:05;;;;;;;;;;;2.30;98.40;;;;;;5095297;28;20343;-68
2022/03/03 05:07:31;;;;;;;;;;;2.40;98.30;;;;;;5095839;28;20447;-67
2022/03/03 05:09:56;;;;;;;;;;;2.40;98.30;;;;;;5077477;28;19908;-68
2022/03/03 05:12:22;;;;;;;;;;;2.30;98.40;;;;;;5095941;28;19912;-68
2022/03/03 05:14:47;;;;;;;;;;;2.30;98.40;;;;;;5078139;28;19914;-68
2022/03/03 05:17:13;;;;;;;;;;;2.30;98.40;;;;;;5096364;28;19908;-69
2022/03/03 05:19:39;;;;;;;;;;;2.20;98.60;;;;;;5096753;28;19908;-68
2022/03/03 05:22:04;;;;;;;;;;;2.20;98.40;;;;;;5095457;28;20955;-68
2022/03/03 05:24:30;;;;;;;;;;;2.30;98.40;;;;;;5095722;28;19924;-69
2022/03/03 05:26:55;;;;;;;;;;;2.20;98.50;;;;;;5076605;28;19932;-69
2022/03/03 05:29:21;;;;;;;;;;;2.20;98.50;;;;;;5077427;28;19946;-70
2022/03/03 05:31:46;;;;;;;;;;;2.20;98.50;;;;;;5077264;28;20014;-70
2022/03/03 05:34:12;;;;;;;;;;;2.20;98.50;;;;;;5094860;28;19942;-67
2022/03/03 05:36:41;;;;;;;;;;;2.20;98.60;;;;;;5077528;28;19915;-68
2022/03/03 05:39:07;;;;;;;;;;;2.20;98.60;;;;;;5095036;28;20269;-68
2022/03/03 05:41:34;;;;;;;;;;;2.40;98.50;;;;;;5095769;28;19915;-68
2022/03/03 05:43:59;;;;;;;;;;;2.30;98.30;;;;;;5094615;28;20254;-67
2022/03/03 05:46:25;;;;;;;;;;;2.40;98.20;;;;;;5095958;28;19938;-69
2022/03/03 05:48:52;;;;;;;;;;;2.40;98.00;;;;;;5078035;28;19912;-68
2022/03/03 05:51:19;;;;;;;;;;;2.40;98.10;;;;;;5077978;28;19908;-67
2022/03/03 05:53:45;;;;;;;;;;;2.30;98.50;;;;;;5095460;28;19912;-68
2022/03/03 05:56:11;;;;;;;;;;;2.30;98.60;;;;;;5095554;28;20049;-71
2022/03/03 05:58:37;;;;;;;;;;;2.30;98.80;;;;;;5078013;28;19908;-68
2022/03/03 06:01:03;;;;;;;;;;;2.30;99.00;;;;;;5095870;28;19909;-68
2022/03/03 06:03:30;;;;;;;;;;;2.30;99.10;;;;;;5095609;28;20266;-68
2022/03/03 06:05:58;;;;;;;;;;;2.40;99.30;;;;;;5076382;28;19912;-69
2022/03/03 06:08:30;;;;;;;;;;;2.30;99.20;;;;;;5095156;28;19963;-67
2022/03/03 06:11:00;;;;;;;;;;;2.20;99.30;;;;;;5094976;28;19908;-67
2022/03/03 06:13:28;;;;;;;;;;;2.20;99.60;;;;;;5077121;28;19908;-69
2022/03/03 06:15:54;;;;;;;;;;;2.20;99.70;;;;;;5077474;28;19908;-69
2022/03/03 06:18:23;;;;;;;;;;;2.20;99.70;;;;;;5076425;28;20345;-69
2022/03/03 06:20:51;;;;;;;;;;;2.30;99.70;;;;;;5094370;28;19916;-70
2022/03/03 06:23:17;;;;;;;;;;;2.40;99.50;;;;;;5075492;28;20280;-67
2022/03/03 06:25:43;;;;;;;;;;;2.30;99.60;;;;;;5076644;28;19920;-69
2022/03/03 06:28:08;;;;;;;;;;;2.40;99.50;;;;;;5094162;28;19935;-69
2022/03/03 06:30:34;;;;;;;;;;;2.50;99.40;;;;;;5094816;28;20353;-69
2022/03/03 06:32:59;;;;;;;;;;;2.50;99.30;;;;;;5093873;28;20000;-68
2022/03/03 06:35:25;;;;;;;;;;;2.60;99.00;;;;;;5094116;28;20020;-68
2022/03/03 06:37:50;;;;;;;;;;;2.50;98.90;;;;;;5094243;28;19915;-70
2022/03/03 06:40:16;;;;;;;;;;;2.70;98.50;;;;;;5075549;28;19916;-69
2022/03/03 06:42:42;;;;;;;;;;;2.70;98.50;;;;;;5076355;28;19919;-70
2022/03/03 06:45:08;;;;;;;;;;;2.70;98.40;;;;;;5075747;28;19914;-70
2022/03/03 06:47:34;;;;;;;;;;;2.90;98.20;;;;;;5076183;28;20357;-71
2022/03/03 06:49:59;;;;;;;;;;;2.90;98.00;;;;;;5075729;28;20321;-68
2022/03/03 06:52:26;;;;;;;;;;;2.90;97.80;;;;;;5093693;28;19912;-68
2022/03/03 06:54:53;;;;;;;;;;;3.00;97.70;;;;;;5076371;28;19928;-69
2022/03/03 06:57:22;;;;;;;;;;;3.30;97.20;;;;;;5075742;28;19915;-69
2022/03/03 06:59:49;;;;;;;;;;;3.50;96.60;;;;;;5093912;28;19931;-71
2022/03/03 07:02:15;;;;;;;;;;;3.70;96.30;;;;;;5093168;28;19908;-69
2022/03/03 07:04:40;;;;;;;;;;;4.00;96.10;;;;;;5075728;28;19908;-68
2022/03/03 07:07:06;;;;;;;;;;;4.40;95.70;;;;;;5097782;28;19912;-71
2022/03/03 07:09:32;;;;;;;;;;;4.70;94.70;;;;;;5080051;28;20420;-69
2022/03/03 07:11:59;;;;;;;;;;;4.90;93.60;;;;;;5097884;28;19908;-71
2022/03/03 07:14:25;;;;;;;;;;;5.10;93.20;;;;;;5080785;28;20303;-70
2022/03/03 07:17:09;;;;;;;;;;;5.40;92.60;;;;;;5080171;28;20372;-70
2022/03/03 07:19:45;;;;;;;;;;;5.40;92.20;;;;;;5087343;28;19919;-69
2022/03/03 07:22:17;;;;;;;;;;;5.80;92.30;;;;;;5087814;28;19912;-71
2022/03/03 07:24:45;;;;;;;;;;;5.90;91.20;;;;;;5071441;28;19943;-69
2022/03/03 07:27:18;;;;;;;;;;;6.10;90.70;;;;;;5065338;28;20264;-68
2022/03/03 07:29:45;;;;;;;;;;;6.40;90.10;;;;;;5085363;28;19912;-69
2022/03/03 07:32:13;;;;;;;;;;;6.20;88.90;;;;;;5086182;28;19920;-68
2022/03/03 07:34:39;;;;;;;;;;;6.60;88.00;;;;;;5077896;28;19908;-70
2022/03/03 07:37:07;;;;;;;;;;;6.70;87.50;;;;;;5076662;28;19958;-68
2022/03/03 07:39:40;;;;;;;;;;;7.10;86.10;;;;;;5096984;28;19912;-67
2022/03/03 07:42:09;;;;;;;;;;;6.90;86.10;;;;;;5076121;28;20369;-65
2022/03/03 07:44:35;;;;;;;;;;;7.20;84.40;;;;;;5069441;28;19935;-66
2022/03/03 07:47:01;;;;;;;;;;;7.50;83.30;;;;;;5076687;28;19912;-68
2022/03/03 07:49:28;;;;;;;;;;;7.20;83.30;;;;;;5079275;28;19915;-65
2022/03/03 07:51:54;;;;;;;;;;;7.50;82.40;;;;;;5079324;28;19908;-66
2022/03/03 07:54:19;;;;;;;;;;;8.10;80.70;;;;;;5074736;28;19920;-66
2022/03/03 07:56:48;;;;;;;;;;;8.30;79.50;;;;;;5083567;28;19912;-66
2022/03/03 07:59:16;;;;;;;;;;;8.60;79.00;;;;;;5061807;28;19908;-67
2022/03/03 08:01:44;;;;;;;;;;;9.00;77.80;;;;;;5078320;28;19915;-65
2022/03/03 08:04:11;;;;;;;;;;;9.30;76.70;;;;;;5090539;28;19912;-66
2022/03/03 08:06:36;;;;;;;;;;;9.40;75.90;;;;;;5095193;28;20021;-65
2022/03/03 08:09:03;;;;;;;;;;;9.60;75.10;;;;;;5071655;28;19916;-67
2022/03/03 08:11:28;;;;;;;;;;;9.70;74.40;;;;;;5096834;28;19916;-67
2022/03/03 08:13:55;;;;;;;;;;;10.00;73.80;;;;;;5093671;28;19912;-66
2022/03/03 08:16:20;;;;;;;;;;;9.80;73.30;;;;;;5089224;28;20127;-66
2022/03/03 08:18:46;;;;;;;;;;;10.10;72.60;;;;;;5094515;28;19922;-67
2022/03/03 08:21:13;;;;;;;;;;;10.30;71.40;;;;;;5060151;28;19919;-69
2022/03/03 08:23:39;;;;;;;;;;;10.50;71.10;;;;;;5090503;28;19924;-66
2022/03/03 08:26:05;;;;;;;;;;;10.60;70.80;;;;;;5094517;28;19966;-67
2022/03/03 08:28:31;;;;;;;;;;;10.80;70.60;;;;;;5073969;28;20354;-66
2022/03/03 08:31:01;;;;;;;;;;;11.00;70.40;;;;;;5096465;28;19999;-67
2022/03/03 08:33:39;;;;;;;;;;;11.00;69.00;;;;;;5098097;28;19908;-68
2022/03/03 08:36:08;;;;;;;;;;;11.00;69.60;;;;;;5092381;28;19920;-65
2022/03/03 08:38:37;;;;;;;;;;;11.40;68.50;;;;;;5085194;28;20011;-65
2022/03/03 08:41:04;;;;;;;;;;;11.50;67.90;;;;;;5087147;28;19916;-68
2022/03/03 08:43:30;;;;;;;;;;;;;;;;;;5072925;28;19955;-66
2022/03/03 08:46:02;;;;;;;;;;;12.40;71.20;;;;;;5082095;28;20315;-67
2022/03/03 08:48:30;;;;;;;;;;;11.60;67.60;;;;;;5075798;28;19919;-66
2022/03/03 08:50:57;;;;;;;;;;;12.10;66.70;;;;;;5093706;28;20082;-66
2022/03/03 08:53:22;;;;;;;;;;;12.30;66.10;;;;;;5074144;28;20246;-65
2022/03/03 08:55:48;;;;;;;;;;;12.60;65.00;;;;;;5060212;28;20381;-65
2022/03/03 08:58:14;;;;;;;;;;;12.60;64.90;;;;;;5084084;28;19999;-67
2022/03/03 09:00:40;;;;;;;;;;;12.90;65.00;;;;;;5092860;28;19915;-68
2022/03/03 09:03:06;;;;;;;;;;;12.90;87.00;;;;;;5076956;28;19912;-67
2022/03/03 09:05:32;;;;;;;;;;;13.10;77.30;;;;;;5094932;28;20281;-66
2022/03/03 09:07:58;;;;;;;;;;;13.40;80.00;;;;;;5066659;28;19920;-69
2022/03/03 09:10:24;;;;;;;;;;;13.40;74.90;;;;;;5059017;28;20127;-67
2022/03/03 09:12:50;;;;;;;;;;;13.20;81.00;;;;;;5055621;28;19912;-65
2022/03/03 09:15:15;;;;;;;;;;;13.80;82.30;;;;;;5060248;28;19908;-67
2022/03/03 09:17:42;;;;;;;;;;;13.90;73.10;;;;;;5075293;28;20019;-66
2022/03/03 09:20:11;;;;;;;;;;;14.30;73.70;;;;;;5092794;28;20002;-67
2022/03/03 09:22:37;;;;;;;;;;;14.30;73.20;;;;;;5074178;28;19980;-67
2022/03/03 09:25:03;;;;;;;;;;;14.40;61.30;;;;;;5092505;28;20265;-66
2022/03/03 09:27:29;;;;;;;;;;;14.40;60.00;;;;;;5091700;28;19912;-65
2022/03/03 09:29:54;;;;;;;;;;;14.60;58.70;;;;;;5074092;28;20323;-66
2022/03/03 09:32:20;;;;;;;;;;;14.90;58.10;;;;;;5072983;28;20338;-64
2022/03/03 09:34:45;;;;;;;;;;;14.70;58.20;;;;;;5073329;28;20001;-68
2022/03/03 09:37:12;;;;;;;;;;;13.20;59.40;;;;;;5092312;28;20060;-66
2022/03/03 09:39:37;;;;;;;;;;;13.80;59.30;;;;;;5087769;28;19969;-67
2022/03/03 09:42:03;;;;;;;;;;;13.30;59.00;;;;;;5073172;28;20037;-66
2022/03/03 09:44:28;;;;;;;;;;;13.40;59.00;;;;;;5073901;28;19916;-66
2022/03/03 09:46:55;;;;;;;;;;;14.20;59.00;;;;;;5092621;28;19955;-67
2022/03/03 09:49:21;;;;;;;;;;;14.50;57.80;;;;;;5057038;28;19968;-65
2022/03/03 09:51:47;;;;;;;;;;;14.80;57.50;;;;;;5073816;28;19934;-68
2022/03/03 09:54:14;;;;;;;;;;;14.90;56.70;;;;;;5073139;28;20007;-66
2022/03/03 09:56:40;;;;;;;;;;;15.10;56.40;;;;;;5091753;28;19911;-67
2022/03/03 09:59:07;;;;;;;;;;;15.30;56.60;;;;;;5092580;28;19913;-67
2022/03/03 10:01:33;;;;;;;;;;;15.50;62.70;;;;;;5073548;28;19916;-67
2022/03/03 10:04:13;;;;;;;;;;;14.40;57.10;;;;;;5073836;28;20245;-68
2022/03/03 10:06:42;;;;;;;;;;;14.80;57.00;;;;;;5074363;28;20014;-67
2022/03/03 10:09:09;;;;;;;;;;;15.70;56.10;;;;;;5091233;28;19912;-72
2022/03/03 10:11:46;;;;;;;;;;;15.60;54.90;;;;;;5073371;28;19908;-67
2022/03/03 10:14:12;;;;;;;;;;;16.00;54.50;;;;;;5076844;28;20015;-67
2022/03/03 10:16:46;;;;;;;;;;;16.20;54.60;;;;;;5036769;28;20379;-67
2022/03/03 10:19:11;;;;;;;;;;;16.90;53.60;;;;;;5052660;28;19953;-67
2022/03/03 10:21:38;;;;;;;;;;;17.30;52.30;;;;;;5053307;28;19908;-70
2022/03/03 10:24:21;;;;;;;;;;;17.60;51.70;;;;;;5063644;28;19965;-68
2022/03/03 10:26:55;;;;;;;;;;;17.50;52.50;;;;;;5084051;28;19920;-68
2022/03/03 10:29:21;;;;;;;;;;;17.80;51.40;;;;;;5080465;28;19917;-68
2022/03/03 10:31:48;;;;;;;;;;;18.10;50.90;;;;;;5077307;28;19908;-69
2022/03/03 10:34:21;;;;;;;;;;;17.20;51.00;;;;;;5055714;28;19908;-67
2022/03/03 10:37:16;;;;;;;;;;;16.60;51.30;;;;;;5084362;28;19908;-67
2022/03/03 10:39:43;;;;;;;;;;;16.40;51.60;;;;;;5057386;28;20011;-68
2022/03/03 10:42:12;;;;;;;;;;;16.80;51.30;;;;;;5080873;28;19912;-68
2022/03/03 10:44:38;;;;;;;;;;;17.70;50.80;;;;;;5091206;28;19984;-67
2022/03/03 10:47:03;;;;;;;;;;;18.20;49.70;;;;;;5072919;28;20298;-68
2022/03/03 10:49:29;;;;;;;;;;;17.30;50.40;;;;;;5072843;28;19965;-69
2022/03/03 10:52:08;;;;;;;;;;;17.90;50.50;;;;;;5090839;28;20376;-67
2022/03/03 10:54:46;;;;;;;;;;;18.50;50.00;;;;;;5090961;28;19912;-68
2022/03/03 10:57:12;;;;;;;;;;;18.50;49.80;;;;;;5092284;28;19915;-69
2022/03/03 10:59:41;;;;;;;;;;;18.90;48.90;;;;;;5091381;28;19908;-69
2022/03/03 11:02:09;;;;;;;;;;;19.20;48.10;;;;;;5091311;28;20026;-69
2022/03/03 11:04:36;;;;;;;;;;;19.30;48.10;;;;;;5071956;28;19984;-68
2022/03/03 11:07:03;;;;;;;;;;;19.20;47.50;;;;;;5091035;28;19912;-68
2022/03/03 11:09:30;;;;;;;;;;;19.20;47.30;;;;;;5090516;28;19912;-68
2022/03/03 11:11:56;;;;;;;;;;;18.90;47.40;;;;;;5073337;28;19908;-67
2022/03/03 11:14:22;;;;;;;;;;;18.80;47.30;;;;;;5072072;28;19950;-69
2022/03/03 11:16:48;;;;;;;;;;;19.00;47.30;;;;;;5072665;28;20324;-69
2022/03/03 11:19:14;;;;;;;;;;;18.70;47.20;;;;;;5071655;28;19958;-70
2022/03/03 11:21:39;;;;;;;;;;;19.00;47.10;;;;;;5072586;28;20368;-68
2022/03/03 11:24:05;;;;;;;;;;;19.60;46.10;;;;;;5071826;28;19924;-67
2022/03/03 11:26:34;;;;;;;;;;;19.40;45.50;;;;;;5071706;28;19923;-68
2022/03/03 11:29:10;;;;;;;;;;;20.10;45.90;;;;;;5072473;28;20386;-69
2022/03/03 11:31:37;;;;;;;;;;;20.00;46.20;;;;;;5071188;28;20002;-67
2022/03/03 11:34:19;;;;;;;;;;;19.50;43.90;;;;;;5090865;28;19956;-67
2022/03/03 11:36:45;;;;;;;;;;;17.80;44.90;;;;;;5090179;28;20276;-69
2022/03/03 11:39:30;;;;;;;;;;;17.70;46.70;;;;;;5090180;28;19908;-67
2022/03/03 11:41:56;;;;;;;;;;;18.10;46.80;;;;;;5071542;28;19916;-68
2022/03/03 11:44:30;;;;;;;;;;;19.50;45.30;;;;;;5071736;28;20308;-69
2022/03/03 11:46:57;;;;;;;;;;;19.60;46.30;;;;;;5072191;28;19912;-68
2022/03/03 11:49:24;;;;;;;;;;;19.70;45.00;;;;;;5071539;28;20022;-68
2022/03/03 11:51:51;;;;;;;;;;;20.00;45.80;;;;;;5073570;28;19990;-68
2022/03/03 11:54:23;;;;;;;;;;;20.20;47.10;;;;;;5093527;28;19912;-70
2022/03/03 11:57:04;;;;;;;;;;;20.30;46.80;;;;;;5094685;28;19912;-68
2022/03/03 11:59:48;;;;;;;;;;;20.90;46.00;;;;;;5093144;28;19912;-68
2022/03/03 12:02:18;;;;;;;;;;;20.50;45.90;;;;;;5074775;28;20464;-70
2022/03/03 12:04:44;;;;;;;;;;;20.80;45.90;;;;;;5093927;28;19926;-68
2022/03/03 12:07:25;;;;;;;;;;;21.00;45.40;;;;;;5093773;28;20010;-69
2022/03/03 12:09:51;;;;;;;;;;;21.50;45.10;;;;;;5093432;28;19918;-68
2022/03/03 12:12:19;;;;;;;;;;;21.60;45.00;;;;;;5074382;28;20012;-68
2022/03/03 12:14:48;;;;;;;;;;;21.10;43.60;;;;;;5075226;28;19931;-68
2022/03/03 12:17:32;;;;;;;;;;;20.90;44.00;;;;;;5094389;28;19915;-68
2022/03/03 12:20:17;;;;;;;;;;;20.10;44.80;;;;;;5073685;28;19957;-68
2022/03/03 12:23:01;;;;;;;;;;;20.80;44.40;;;;;;5072242;28;19923;-68
2022/03/03 12:25:46;;;;;;;;;;;21.30;42.90;;;;;;5054420;28;19912;-69
2022/03/03 12:28:16;;;;;;;;;;;21.80;41.00;;;;;;5081600;28;20015;-69
2022/03/03 12:30:45;;;;;;;;;;;21.10;40.40;;;;;;5062851;28;20007;-69
2022/03/03 12:33:23;;;;;;;;;;;21.10;40.40;;;;;;5093249;28;19961;-70
2022/03/03 12:35:49;;;;;;;;;;;21.50;40.80;;;;;;5093059;28;19916;-68
2022/03/03 12:38:15;;;;;;;;;;;21.00;41.20;;;;;;5093373;28;19965;-68
2022/03/03 12:40:40;;;;;;;;;;;21.50;41.70;;;;;;5092533;28;19912;-68
2022/03/03 12:43:19;;;;;;;;;;;21.20;41.80;;;;;;5093277;28;20011;-68
2022/03/03 12:45:46;;;;;;;;;;;20.90;42.60;;;;;;5092782;28;19912;-68
2022/03/03 12:48:12;;;;;;;;;;;21.40;42.60;;;;;;5074863;28;19951;-68
2022/03/03 12:50:40;;;;;;;;;;;21.30;42.80;;;;;;5074443;28;20314;-68
2022/03/03 12:53:13;;;;;;;;;;;21.90;42.20;;;;;;5089565;28;20007;-68
2022/03/03 12:55:39;;;;;;;;;;;21.60;42.50;;;;;;5062719;28;19964;-69
2022/03/03 12:58:06;;;;;;;;;;;21.10;43.00;;;;;;5074167;28;19912;-68
2022/03/03 13:00:34;;;;;;;;;;;21.80;42.50;;;;;;5078868;28;19984;-67
2022/03/03 13:03:00;;;;;;;;;;;19.90;44.00;;;;;;5088691;28;19908;-67
2022/03/03 13:05:30;;;;;;;;;;;21.30;43.90;;;;;;5070038;28;19915;-69
2022/03/03 13:07:56;;;;;;;;;;;21.20;44.00;;;;;;5067132;28;20098;-66
2022/03/03 13:10:21;;;;;;;;;;;21.20;43.70;;;;;;5053710;28;19947;-68
2022/03/03 13:12:48;;;;;;;;;;;21.50;43.40;;;;;;5054606;28;19922;-67
2022/03/03 13:15:14;;;;;;;;;;;21.90;42.70;;;;;;5072394;28;19912;-68
2022/03/03 13:17:56;;;;;;;;;;;21.80;42.80;;;;;;5053965;28;19924;-67
2022/03/03 13:20:21;;;;;;;;;;;22.10;42.50;;;;;;5071907;28;19912;-68
2022/03/03 13:22:47;;;;;;;;;;;22.10;42.80;;;;;;5072304;28;19912;-67
2022/03/03 13:25:17;;;;;;;;;;;22.00;43.10;;;;;;5061102;28;20010;-68
2022/03/03 13:27:47;;;;;;;;;;;21.80;43.80;;;;;;5091419;28;19981;-67
2022/03/03 13:30:13;;;;;;;;;;;21.90;43.50;;;;;;5090853;28;20018;-67
2022/03/03 13:32:46;;;;;;;;;;;22.00;43.60;;;;;;5063422;28;20003;-69
2022/03/03 13:35:13;;;;;;;;;;;22.20;43.40;;;;;;5066007;28;19909;-67
2022/03/03 13:37:38;;;;;;;;;;;21.90;43.60;;;;;;5066801;28;19908;-68
2022/03/03 13:40:14;;;;;;;;;;;22.30;43.30;;;;;;5071388;28;19918;-68
2022/03/03 13:42:40;;;;;;;;;;;22.40;43.10;;;;;;5071854;28;19908;-72
2022/03/03 13:45:06;;;;;;;;;;;22.20;42.80;;;;;;5089994;28;19942;-68
2022/03/03 13:47:34;;;;;;;;;;;22.50;42.00;;;;;;5092328;28;20093;-67
2022/03/03 13:50:00;;;;;;;;;;;22.60;42.50;;;;;;5076041;28;19916;-71
2022/03/03 13:52:30;;;;;;;;;;;22.20;42.50;;;;;;5078994;28;19979;-68
2022/03/03 13:54:58;;;;;;;;;;;22.30;42.20;;;;;;5086152;28;19920;-69
2022/03/03 13:57:30;;;;;;;;;;;22.50;42.20;;;;;;5074041;28;19908;-69
2022/03/03 13:59:57;;;;;;;;;;;22.50;42.40;;;;;;5073562;28;19908;-69
2022/03/03 14:02:22;;;;;;;;;;;22.50;42.30;;;;;;5073391;28;20079;-73
2022/03/03 14:04:57;;;;;;;;;;;21.70;42.90;;;;;;5074168;28;19952;-67
2022/03/03 14:07:29;;;;;;;;;;;21.90;43.00;;;;;;5073530;28;19943;-73
2022/03/03 14:09:59;;;;;;;;;;;22.00;43.00;;;;;;5092216;28;19942;-68
2022/03/03 14:12:25;;;;;;;;;;;22.20;43.80;;;;;;5073156;28;19915;-69
2022/03/03 14:14:50;;;;;;;;;;;21.90;43.50;;;;;;5090145;28;19908;-68
2022/03/03 14:17:16;;;;;;;;;;;21.80;43.70;;;;;;5090611;28;20011;-69
2022/03/03 14:19:43;;;;;;;;;;;21.80;43.10;;;;;;5072694;28;19998;-68
2022/03/03 14:22:09;;;;;;;;;;;21.30;43.20;;;;;;5091556;28;19908;-68
2022/03/03 14:24:36;;;;;;;;;;;21.80;44.00;;;;;;5090555;28;20292;-68